Time;durP1;ratioP1;P1;durP2;ratioP2;P2;SDS_P1;SDS_P2;PMS_P1;PMS_P2;Temp;Humidity;BMP_temperature;BMP_pressure;BME280_temperature;BME280_humidity;BME280_pressure;Samples;Min_cycle;Max_cycle;Signal;HPM_P1;HPM_P2
2023/05/10 00:00:14;;;;;;;27.83;16.58;;;13.40;99.90;;;;;;5014392;28;20033;-83
2023/05/10 00:02:40;;;;;;;30.83;17.45;;;13.30;99.90;;;;;;5015306;28;20815;-83
2023/05/10 00:05:09;;;;;;;30.33;16.25;;;13.40;99.90;;;;;;5011759;28;20033;-83
2023/05/10 00:07:34;;;;;;;29.85;16.23;;;13.40;99.90;;;;;;5013317;28;20344;-84
2023/05/10 00:10:00;;;;;;;32.67;17.63;;;13.40;99.90;;;;;;5013513;28;20038;-83
2023/05/10 00:12:25;;;;;;;28.77;17.02;;;13.40;99.90;;;;;;5014196;28;20033;-83
2023/05/10 00:14:51;;;;;;;33.17;18.42;;;13.40;99.90;;;;;;5015287;28;20847;-83
2023/05/10 00:17:16;;;;;;;33.67;19.02;;;13.40;99.90;;;;;;5015553;28;20475;-83
2023/05/10 00:19:42;;;;;;;30.73;17.65;;;13.40;99.90;;;;;;5014633;28;20026;-84
2023/05/10 00:22:07;;;;;;;34.28;18.02;;;13.40;99.90;;;;;;5014727;28;20130;-83
2023/05/10 00:24:33;;;;;;;38.00;21.00;;;13.40;99.90;;;;;;5014145;28;20087;-83
2023/05/10 00:26:58;;;;;;;36.80;21.52;;;13.40;99.90;;;;;;5014778;28;20049;-83
2023/05/10 00:29:24;;;;;;;37.30;21.08;;;13.30;99.90;;;;;;5015459;28;20075;-83
2023/05/10 00:31:50;;;;;;;35.08;19.95;;;13.30;99.90;;;;;;5013753;28;20014;-83
2023/05/10 00:34:15;;;;;;;43.05;22.67;;;13.30;99.90;;;;;;5031312;28;20079;-84
2023/05/10 00:36:41;;;;;;;36.90;21.42;;;13.30;99.90;;;;;;5014576;28;20048;-84
2023/05/10 00:39:07;;;;;;;34.83;19.58;;;13.30;99.90;;;;;;5013692;28;20021;-83
2023/05/10 00:41:33;;;;;;;39.22;21.70;;;13.30;99.90;;;;;;5012760;28;20056;-83
2023/05/10 00:43:58;;;;;;;38.28;22.08;;;13.30;99.90;;;;;;5014481;28;20515;-83
2023/05/10 00:46:25;;;;;;;40.25;22.63;;;13.30;99.90;;;;;;5014126;28;20119;-83
2023/05/10 00:48:51;;;;;;;38.50;20.95;;;13.30;99.90;;;;;;5015772;28;20124;-84
2023/05/10 00:51:17;;;;;;;36.97;22.08;;;13.30;99.90;;;;;;5030190;28;20774;-84
2023/05/10 00:53:45;;;;;;;36.03;19.50;;;13.30;99.90;;;;;;5014524;28;20040;-83
2023/05/10 00:56:10;;;;;;;36.25;20.50;;;13.30;99.90;;;;;;5015127;28;20046;-84
2023/05/10 00:58:36;;;;;;;39.15;21.25;;;13.30;99.90;;;;;;5013425;28;20028;-84
2023/05/10 01:01:02;;;;;;;38.67;21.23;;;13.20;99.90;;;;;;5029628;28;20095;-84
2023/05/10 01:03:28;;;;;;;43.03;23.27;;;13.20;99.90;;;;;;5014974;28;20059;-83
2023/05/10 01:05:55;;;;;;;44.55;22.98;;;13.30;99.90;;;;;;5015026;28;20061;-85
2023/05/10 01:08:20;;;;;;;45.15;24.95;;;13.30;99.90;;;;;;5027461;28;20021;-84
2023/05/10 01:10:48;;;;;;;41.10;24.17;;;13.30;99.90;;;;;;5014503;28;20102;-83
2023/05/10 01:13:27;;;;;;;45.42;23.40;;;13.30;99.90;;;;;;5013908;28;20483;-84
2023/05/10 01:15:52;;;;;;;49.40;26.52;;;13.30;99.90;;;;;;5014699;28;20072;-83
2023/05/10 01:18:20;;;;;;;47.30;25.58;;;13.30;99.90;;;;;;5018370;28;20017;-84
2023/05/10 01:20:50;;;;;;;41.33;22.52;;;13.30;99.90;;;;;;5014591;28;20156;-84
2023/05/10 01:23:26;;;;;;;39.05;23.10;;;13.40;99.90;;;;;;5016628;28;20017;-84
2023/05/10 01:26:29;;;;;;;41.97;23.15;;;13.40;99.90;;;;;;5016709;28;20112;-84
2023/05/10 01:29:16;;;;;;;39.20;21.55;;;13.40;99.90;;;;;;5016717;28;20487;-84
2023/05/10 01:32:01;;;;;;;39.15;21.65;;;13.40;99.90;;;;;;5016932;28;20499;-84
2023/05/10 01:34:35;;;;;;;41.80;23.08;;;13.40;99.90;;;;;;5019248;28;20030;-84
2023/05/10 01:37:19;;;;;;;41.05;22.48;;;13.50;99.90;;;;;;5017476;28;20030;-84
2023/05/10 01:39:54;;;;;;;48.70;27.05;;;13.40;99.90;;;;;;5016858;28;20099;-84
2023/05/10 01:42:33;;;;;;;39.83;23.42;;;13.40;99.90;;;;;;5015393;28;20028;-84
2023/05/10 01:45:07;;;;;;;41.97;23.13;;;13.40;99.90;;;;;;5017492;28;20037;-83
2023/05/10 01:47:41;;;;;;;41.33;24.25;;;13.40;99.90;;;;;;5018490;28;20506;-82
2023/05/10 01:50:15;;;;;;;39.03;22.73;;;13.40;99.90;;;;;;5018828;28;20029;-84
2023/05/10 01:52:46;;;;;;;;;;;13.40;99.90;;;;;;5016589;28;20595;-84
2023/05/10 01:55:16;;;;;;;43.72;24.50;;;13.40;99.90;;;;;;5015868;28;19932;-83
2023/05/10 01:57:44;;;;;;;49.78;25.75;;;13.40;99.90;;;;;;5016961;28;20498;-84
2023/05/10 02:00:11;;;;;;;45.90;24.35;;;13.40;99.90;;;;;;5016464;28;20038;-83
2023/05/10 02:02:41;;;;;;;43.38;23.42;;;13.40;99.90;;;;;;5016786;28;20175;-83
2023/05/10 02:05:08;;;;;;;39.40;22.45;;;13.40;99.90;;;;;;5018289;28;20033;-83
2023/05/10 02:07:36;;;;;;;40.58;21.48;;;13.40;99.90;;;;;;5031585;28;20036;-83
2023/05/10 02:10:07;;;;;;;42.60;22.95;;;13.40;99.90;;;;;;5030689;28;20034;-83
2023/05/10 02:12:37;;;;;;;45.65;23.83;;;13.40;99.90;;;;;;5016914;28;20038;-84
2023/05/10 02:15:05;;;;;;;41.80;21.80;;;13.40;99.90;;;;;;5014618;28;20033;-84
2023/05/10 02:17:33;;;;;;;40.88;21.65;;;13.30;99.90;;;;;;5015470;28;20112;-84
2023/05/10 02:20:00;;;;;;;41.00;21.27;;;13.30;99.90;;;;;;5016018;28;20037;-84
2023/05/10 02:22:27;;;;;;;43.30;20.73;;;13.30;99.90;;;;;;5016980;28;20022;-83
2023/05/10 02:24:57;;;;;;;41.33;20.33;;;13.40;99.90;;;;;;5016272;28;20037;-83
2023/05/10 02:27:25;;;;;;;43.63;20.63;;;13.30;99.90;;;;;;5020187;28;20105;-84
2023/05/10 02:29:52;;;;;;;48.83;23.50;;;13.30;99.90;;;;;;5017362;28;20119;-84
2023/05/10 02:32:18;;;;;;;50.58;24.25;;;13.40;99.90;;;;;;5013821;28;20029;-84
2023/05/10 02:34:45;;;;;;;55.05;26.40;;;13.40;99.90;;;;;;5016894;28;20124;-84
2023/05/10 02:37:14;;;;;;;60.15;30.15;;;13.40;99.90;;;;;;5018274;28;20518;-84
2023/05/10 02:39:43;;;;;;;69.00;31.75;;;13.30;99.90;;;;;;5015552;28;20028;-84
2023/05/10 02:42:16;;;;;;;57.40;28.70;;;13.30;99.90;;;;;;5014640;28;20410;-83
2023/05/10 02:44:42;;;;;;;58.15;27.52;;;13.30;99.90;;;;;;5015552;28;20053;-84
2023/05/10 02:47:08;;;;;;;68.85;30.65;;;13.30;99.90;;;;;;5015931;28;20061;-83
2023/05/10 02:49:35;;;;;;;61.90;30.85;;;13.30;99.90;;;;;;5020561;28;20484;-84
2023/05/10 02:52:03;;;;;;;66.40;31.85;;;13.30;99.90;;;;;;5016057;28;20038;-84
2023/05/10 02:54:33;;;;;;;63.10;30.80;;;13.30;99.90;;;;;;5015065;28;20029;-83
2023/05/10 02:57:01;;;;;;;63.03;31.73;;;13.30;99.90;;;;;;5014297;28;20064;-84
2023/05/10 02:59:27;;;;;;;61.83;31.42;;;13.30;99.90;;;;;;5015082;28;20017;-83
2023/05/10 03:01:52;;;;;;;63.88;32.45;;;13.30;99.90;;;;;;5013231;28;20040;-83
2023/05/10 03:04:18;;;;;;;74.75;35.28;;;13.30;99.90;;;;;;5015941;28;20037;-82
2023/05/10 03:06:44;;;;;;;64.68;32.55;;;13.30;99.90;;;;;;5015054;28;20103;-84
2023/05/10 03:09:12;;;;;;;64.22;32.35;;;13.20;99.90;;;;;;5015841;28;20063;-83
2023/05/10 03:11:49;;;;;;;65.32;31.02;;;13.20;99.90;;;;;;5015771;28;20052;-84
2023/05/10 03:14:46;;;;;;;60.78;30.92;;;13.20;99.90;;;;;;5016648;28;20501;-84
2023/05/10 03:17:34;;;;;;;56.97;31.27;;;13.20;99.90;;;;;;5013834;28;20049;-83
2023/05/10 03:20:06;;;;;;;70.70;36.22;;;13.20;99.90;;;;;;5015610;28;20029;-84
2023/05/10 03:22:37;;;;;;;66.85;33.85;;;13.20;99.90;;;;;;5016319;28;20050;-83
2023/05/10 03:25:06;;;;;;;65.80;34.20;;;13.10;99.90;;;;;;5015399;28;20034;-83
2023/05/10 03:27:32;;;;;;;69.82;35.17;;;13.10;99.90;;;;;;5013350;28;20041;-83
2023/05/10 03:29:58;;;;;;;63.17;33.40;;;13.10;99.90;;;;;;5015315;28;20574;-84
2023/05/10 03:32:24;;;;;;;60.78;33.80;;;13.10;99.90;;;;;;5014956;28;20869;-83
2023/05/10 03:34:49;;;;;;;65.85;34.63;;;13.10;99.90;;;;;;5015355;28;20084;-84
2023/05/10 03:37:15;;;;;;;61.72;34.10;;;13.00;99.90;;;;;;5014220;28;20475;-83
2023/05/10 03:39:41;;;;;;;62.40;33.55;;;13.00;99.90;;;;;;5014569;28;20040;-84
2023/05/10 03:42:06;;;;;;;59.80;31.55;;;13.10;99.90;;;;;;5012337;28;20417;-83
2023/05/10 03:44:33;;;;;;;56.65;30.48;;;13.10;99.90;;;;;;5013229;28;20034;-84
2023/05/10 03:46:58;;;;;;;62.80;33.03;;;13.10;99.90;;;;;;5015954;28;20030;-83
2023/05/10 03:49:24;;;;;;;67.18;36.35;;;13.00;99.90;;;;;;5013586;28;20040;-83
2023/05/10 03:51:50;;;;;;;60.70;33.70;;;13.00;99.90;;;;;;5020130;28;20025;-84
2023/05/10 03:54:15;;;;;;;65.28;34.05;;;13.00;99.90;;;;;;5015344;28;20065;-84
2023/05/10 03:56:41;;;;;;;65.88;34.08;;;13.00;99.90;;;;;;5012206;28;20495;-84
2023/05/10 03:59:08;;;;;;;64.05;32.33;;;12.90;99.90;;;;;;5014620;28;20034;-84
2023/05/10 04:01:34;;;;;;;56.10;29.88;;;13.00;99.90;;;;;;5012543;28;20068;-83
2023/05/10 04:04:00;;;;;;;57.42;30.77;;;13.00;99.90;;;;;;5014890;28;20407;-83
2023/05/10 04:06:25;;;;;;;57.45;30.67;;;13.00;99.90;;;;;;5014016;28;20040;-83
2023/05/10 04:08:51;;;;;;;61.92;31.08;;;13.00;99.90;;;;;;5016210;28;20041;-83
2023/05/10 04:11:16;;;;;;;55.90;31.73;;;13.00;99.90;;;;;;5017687;28;20080;-84
2023/05/10 04:13:42;;;;;;;56.60;30.45;;;12.90;99.90;;;;;;5011924;28;20116;-83
2023/05/10 04:16:08;;;;;;;56.25;29.60;;;12.90;99.90;;;;;;5018114;28;20051;-84
2023/05/10 04:18:34;;;;;;;50.03;27.73;;;12.90;99.90;;;;;;5014915;28;20899;-82
2023/05/10 04:21:00;;;;;;;46.03;25.13;;;12.90;99.90;;;;;;5017750;28;20041;-81
2023/05/10 04:23:26;;;;;;;55.47;28.17;;;12.90;99.90;;;;;;5016134;28;20447;-81
2023/05/10 04:25:52;;;;;;;48.78;24.85;;;12.90;99.90;;;;;;5012862;28;20061;-81
2023/05/10 04:28:18;;;;;;;42.75;22.85;;;12.90;99.90;;;;;;5012080;28;20069;-81
2023/05/10 04:30:43;;;;;;;42.53;23.52;;;12.90;99.90;;;;;;5012878;28;20459;-83
2023/05/10 04:33:09;;;;;;;45.25;25.00;;;12.90;99.90;;;;;;5017249;28;20013;-82
2023/05/10 04:35:35;;;;;;;47.45;25.58;;;12.90;99.90;;;;;;5014521;28;20119;-82
2023/05/10 04:38:00;;;;;;;48.55;25.40;;;12.90;99.90;;;;;;5016432;28;20030;-82
2023/05/10 04:40:26;;;;;;;57.15;28.77;;;12.90;99.90;;;;;;5012620;28;20492;-83
2023/05/10 04:42:51;;;;;;;52.83;26.83;;;12.90;99.90;;;;;;5011259;28;20030;-82
2023/05/10 04:45:17;;;;;;;55.20;27.63;;;12.90;99.90;;;;;;5011901;28;20033;-82
2023/05/10 04:47:43;;;;;;;44.28;24.95;;;12.90;99.90;;;;;;5011009;28;20037;-82
2023/05/10 04:50:09;;;;;;;46.10;24.58;;;12.90;99.90;;;;;;5015236;28;20715;-82
2023/05/10 04:52:34;;;;;;;41.88;22.50;;;13.00;99.90;;;;;;5012168;28;20060;-82
2023/05/10 04:55:00;;;;;;;48.90;25.40;;;13.00;99.90;;;;;;5012014;28;20131;-81
2023/05/10 04:57:25;;;;;;;53.58;27.30;;;13.00;99.90;;;;;;5010440;28;20403;-83
2023/05/10 04:59:51;;;;;;;53.33;27.88;;;13.00;99.90;;;;;;5010430;28;20825;-83
2023/05/10 05:02:17;;;;;;;53.97;25.33;;;13.00;99.90;;;;;;5010822;28;20064;-83
2023/05/10 05:04:42;;;;;;;43.97;24.10;;;13.00;99.90;;;;;;5010024;28;20482;-83
2023/05/10 05:07:08;;;;;;;47.72;24.58;;;13.00;99.90;;;;;;5011843;28;20037;-83
2023/05/10 05:09:34;;;;;;;45.83;22.92;;;13.10;99.90;;;;;;5014900;28;20432;-82
2023/05/10 05:11:59;;;;;;;49.03;24.27;;;13.10;99.90;;;;;;5008350;28;20042;-83
2023/05/10 05:14:25;;;;;;;48.85;24.92;;;13.10;99.90;;;;;;5010151;28;20612;-83
2023/05/10 05:16:52;;;;;;;41.20;21.65;;;13.10;99.90;;;;;;5012161;28;20592;-83
2023/05/10 05:19:17;;;;;;;45.08;23.98;;;13.10;99.90;;;;;;5010777;28;20036;-83
2023/05/10 05:21:43;;;;;;;45.15;23.20;;;13.10;99.90;;;;;;5010740;28;20757;-82
2023/05/10 05:24:10;;;;;;;53.50;26.23;;;13.10;99.90;;;;;;5010364;28;20035;-82
2023/05/10 05:26:36;;;;;;;45.90;23.05;;;13.10;99.90;;;;;;5014702;28;20033;-82
2023/05/10 05:29:02;;;;;;;48.22;24.42;;;13.10;99.90;;;;;;5010755;28;20057;-82
2023/05/10 05:31:28;;;;;;;44.22;22.02;;;13.10;99.90;;;;;;5009819;28;20040;-83
2023/05/10 05:33:54;;;;;;;41.88;21.52;;;13.20;99.90;;;;;;5010714;28;20022;-84
2023/05/10 05:36:19;;;;;;;37.90;21.08;;;13.20;99.90;;;;;;5012557;28;20076;-82
2023/05/10 05:38:45;;;;;;;41.72;23.23;;;13.20;99.90;;;;;;5014471;28;20018;-84
2023/05/10 05:41:11;;;;;;;50.92;25.20;;;13.20;99.90;;;;;;5012636;28;20424;-83
2023/05/10 05:43:36;;;;;;;45.90;24.27;;;13.30;99.90;;;;;;5011726;28;20140;-84
2023/05/10 05:46:02;;;;;;;50.45;25.08;;;13.20;99.90;;;;;;5013251;28;20057;-83
2023/05/10 05:48:29;;;;;;;45.15;22.83;;;13.30;99.90;;;;;;5010310;28;20458;-82
2023/05/10 05:50:58;;;;;;;54.28;24.92;;;13.30;99.90;;;;;;5011283;28;20025;-83
2023/05/10 05:53:24;;;;;;;46.97;23.00;;;13.30;99.90;;;;;;5012139;28;20029;-83
2023/05/10 05:55:57;;;;;;;45.15;21.10;;;13.40;99.90;;;;;;5011134;28;20506;-83
2023/05/10 05:58:23;;;;;;;;;;;13.40;99.90;;;;;;5011510;28;20028;-84
2023/05/10 06:00:49;;;;;;;52.70;26.40;;;13.40;99.90;;;;;;5027785;28;19912;-84
2023/05/10 06:03:15;;;;;;;56.63;27.65;;;13.30;99.90;;;;;;5012924;28;20105;-83
2023/05/10 06:05:40;;;;;;;51.75;27.48;;;13.30;99.90;;;;;;5012624;28;20038;-82
2023/05/10 06:08:06;;;;;;;54.50;28.10;;;13.30;99.90;;;;;;5015471;28;20022;-83
2023/05/10 06:10:31;;;;;;;51.60;25.38;;;13.40;99.90;;;;;;5014857;28;20049;-83
2023/05/10 06:12:57;;;;;;;57.88;28.23;;;13.40;99.90;;;;;;5014407;28;20037;-83
2023/05/10 06:15:23;;;;;;;51.92;26.80;;;13.40;99.90;;;;;;5013095;28;20052;-82
2023/05/10 06:17:49;;;;;;;54.65;28.13;;;13.40;99.90;;;;;;5015456;28;20041;-83
2023/05/10 06:20:15;;;;;;;51.88;25.35;;;13.40;99.90;;;;;;5015140;28;20040;-84
2023/05/10 06:22:41;;;;;;;44.47;23.75;;;13.40;99.90;;;;;;5017406;28;20026;-82
2023/05/10 06:25:08;;;;;;;45.78;23.38;;;13.40;99.90;;;;;;5017106;28;20466;-82
2023/05/10 06:27:34;;;;;;;44.95;22.48;;;13.40;99.90;;;;;;5014654;28;20578;-82
2023/05/10 06:30:00;;;;;;;43.08;21.35;;;13.40;99.90;;;;;;5015943;28;20163;-84
2023/05/10 06:32:25;;;;;;;53.67;27.77;;;13.40;99.90;;;;;;5032111;28;20631;-82
2023/05/10 06:34:52;;;;;;;47.22;24.67;;;13.50;99.90;;;;;;5016812;28;20645;-81
2023/05/10 06:37:18;;;;;;;46.78;25.33;;;13.50;99.90;;;;;;5016877;28;20346;-83
2023/05/10 06:39:43;;;;;;;46.28;24.70;;;13.50;99.90;;;;;;5016824;28;20034;-83
2023/05/10 06:42:09;;;;;;;46.17;24.10;;;13.50;99.90;;;;;;5017989;28;20099;-81
2023/05/10 06:44:34;;;;;;;43.55;23.95;;;13.50;99.90;;;;;;5015710;28;20900;-81
2023/05/10 06:47:00;;;;;;;50.38;27.02;;;13.50;99.90;;;;;;5030843;28;20037;-81
2023/05/10 06:49:26;;;;;;;58.72;29.08;;;13.50;99.90;;;;;;5012161;28;20022;-82
2023/05/10 06:51:51;;;;;;;61.67;31.25;;;13.50;99.90;;;;;;5018881;28;20021;-82
2023/05/10 06:54:17;;;;;;;54.38;28.75;;;13.50;99.90;;;;;;5018756;28;20557;-81
2023/05/10 06:56:43;;;;;;;51.80;27.48;;;13.50;99.90;;;;;;5014967;28;20039;-82
2023/05/10 06:59:08;;;;;;;57.97;29.60;;;13.50;99.90;;;;;;5029315;28;20722;-82
2023/05/10 07:01:34;;;;;;;58.17;28.75;;;13.50;99.90;;;;;;5014673;28;20029;-82
2023/05/10 07:04:00;;;;;;;53.53;28.50;;;13.50;99.90;;;;;;5013359;28;20032;-83
2023/05/10 07:06:25;;;;;;;58.90;30.33;;;13.50;99.90;;;;;;5014730;28;20106;-81
2023/05/10 07:08:51;;;;;;;54.78;28.80;;;13.50;99.90;;;;;;5014503;28;20165;-83
2023/05/10 07:11:16;;;;;;;62.33;32.45;;;13.50;99.90;;;;;;5012409;28;20046;-82
2023/05/10 07:13:43;;;;;;;61.15;32.35;;;13.60;99.90;;;;;;5014194;28;20037;-82
2023/05/10 07:16:09;;;;;;;79.35;39.20;;;13.60;99.90;;;;;;5013827;28;20044;-83
2023/05/10 07:18:35;;;;;;;71.45;36.50;;;13.60;99.90;;;;;;5013542;28;20022;-82
2023/05/10 07:21:01;;;;;;;84.90;41.40;;;13.60;99.90;;;;;;5014079;28;20036;-82
2023/05/10 07:23:27;;;;;;;79.10;39.78;;;13.50;99.90;;;;;;5014950;28;20544;-82
2023/05/10 07:25:53;;;;;;;75.55;36.40;;;13.50;99.90;;;;;;5014210;28;20466;-81
2023/05/10 07:28:19;;;;;;;71.65;35.92;;;13.50;99.90;;;;;;5013142;28;20033;-82
2023/05/10 07:30:45;;;;;;;72.63;35.67;;;13.60;99.90;;;;;;5013489;28;20034;-81
2023/05/10 07:33:13;;;;;;;65.15;32.28;;;13.60;99.90;;;;;;5014733;28;20025;-82
2023/05/10 07:35:39;;;;;;;69.93;33.70;;;13.70;99.90;;;;;;5011572;28;20065;-80
2023/05/10 07:38:05;;;;;;;61.78;31.58;;;13.70;99.90;;;;;;5015402;28;20026;-81
2023/05/10 07:40:32;;;;;;;66.93;33.67;;;13.90;99.90;;;;;;5015298;28;20112;-81
2023/05/10 07:42:58;;;;;;;59.83;29.27;;;13.90;99.90;;;;;;5012539;28;21300;-82
2023/05/10 07:45:23;;;;;;;66.05;33.80;;;13.90;99.90;;;;;;5013015;28;20029;-82
2023/05/10 07:47:49;;;;;;;68.78;33.97;;;14.00;99.90;;;;;;5013709;28;20033;-82
2023/05/10 07:50:15;;;;;;;66.90;33.40;;;13.90;99.90;;;;;;5017791;28;20029;-82
2023/05/10 07:52:41;;;;;;;56.17;28.58;;;13.90;99.90;;;;;;5015173;28;20044;-82
2023/05/10 07:55:07;;;;;;;59.90;30.08;;;14.00;99.90;;;;;;5015177;28;20132;-82
2023/05/10 07:57:34;;;;;;;63.60;33.53;;;14.10;99.90;;;;;;5014146;28;20029;-82
2023/05/10 07:59:59;;;;;;;63.22;32.08;;;14.30;99.90;;;;;;5013538;28;21506;-82
2023/05/10 08:02:25;;;;;;;64.25;31.83;;;14.30;99.90;;;;;;5013270;28;20044;-84
2023/05/10 08:04:51;;;;;;;67.13;33.40;;;14.40;99.90;;;;;;5017971;28;20037;-81
2023/05/10 08:07:17;;;;;;;59.80;30.40;;;14.50;99.90;;;;;;5013811;28;20878;-83
2023/05/10 08:09:42;;;;;;;60.30;30.63;;;14.50;99.90;;;;;;5015081;28;20034;-83
2023/05/10 08:12:08;;;;;;;59.03;29.92;;;14.50;99.90;;;;;;5014021;28;20124;-83
2023/05/10 08:14:33;;;;;;;56.35;28.55;;;14.50;99.90;;;;;;5012511;28;20567;-82
2023/05/10 08:16:59;;;;;;;53.75;28.52;;;14.60;99.90;;;;;;5008813;28;20044;-83
2023/05/10 08:19:25;;;;;;;56.60;28.27;;;14.60;99.90;;;;;;5011529;28;20029;-83
2023/05/10 08:21:50;;;;;;;48.92;26.88;;;14.60;99.90;;;;;;5013565;28;20025;-82
2023/05/10 08:24:16;;;;;;;44.85;23.92;;;14.70;99.90;;;;;;5013927;28;20497;-83
2023/05/10 08:26:41;;;;;;;45.38;24.75;;;14.80;99.90;;;;;;5014406;28;20034;-82
2023/05/10 08:29:07;;;;;;;48.22;27.50;;;14.90;99.90;;;;;;5010463;28;20041;-82
2023/05/10 08:31:33;;;;;;;43.22;24.30;;;14.90;99.90;;;;;;5010368;28;20096;-82
2023/05/10 08:33:58;;;;;;;37.47;22.92;;;14.90;99.90;;;;;;5010313;28;20051;-83
2023/05/10 08:36:24;;;;;;;42.25;23.92;;;15.00;99.90;;;;;;5010128;28;20044;-83
2023/05/10 08:38:53;;;;;;;39.70;21.85;;;14.90;99.90;;;;;;5011534;28;20134;-83
2023/05/10 08:41:24;;;;;;;39.97;22.70;;;14.80;99.90;;;;;;5013076;28;20036;-82
2023/05/10 08:43:50;;;;;;;38.80;21.48;;;14.80;99.90;;;;;;5013073;28;20030;-82
2023/05/10 08:46:17;;;;;;;36.47;20.35;;;14.80;99.90;;;;;;5012488;28;20060;-83
2023/05/10 08:48:45;;;;;;;31.92;18.48;;;14.80;99.90;;;;;;5011189;28;20027;-82
2023/05/10 08:51:16;;;;;;;32.03;18.88;;;14.80;99.90;;;;;;5012069;28;20037;-81
2023/05/10 08:53:41;;;;;;;29.10;16.33;;;14.70;99.90;;;;;;5013641;28;20022;-80
2023/05/10 08:56:07;;;;;;;26.20;14.82;;;14.70;99.90;;;;;;5014586;28;20045;-81
2023/05/10 08:58:33;;;;;;;21.00;13.70;;;14.80;99.90;;;;;;5011298;28;20140;-82
2023/05/10 09:01:00;;;;;;;21.40;13.57;;;15.00;99.90;;;;;;5011830;28;20037;-82
2023/05/10 09:03:26;;;;;;;18.50;11.43;;;15.20;99.90;;;;;;5011288;28;20108;-81
2023/05/10 09:05:52;;;;;;;19.95;12.55;;;15.30;99.90;;;;;;5011648;28;20095;-82
2023/05/10 09:08:18;;;;;;;17.13;11.43;;;15.40;99.90;;;;;;5013202;28;20076;-82
2023/05/10 09:10:44;;;;;;;17.38;10.85;;;15.40;99.90;;;;;;5011426;28;20049;-82
2023/05/10 09:13:11;;;;;;;14.23;9.43;;;15.40;99.90;;;;;;5012900;28;20487;-82
2023/05/10 09:15:37;;;;;;;16.05;10.05;;;15.40;99.90;;;;;;5028337;28;20037;-83
2023/05/10 09:18:03;;;;;;;13.63;8.70;;;15.40;99.90;;;;;;5012943;28;20048;-84
2023/05/10 09:20:29;;;;;;;12.88;9.05;;;15.30;99.90;;;;;;5011539;28;20041;-81
2023/05/10 09:22:55;;;;;;;13.13;7.75;;;15.30;99.90;;;;;;5013962;28;20033;-83
2023/05/10 09:25:22;;;;;;;11.52;8.00;;;15.30;99.90;;;;;;5016961;28;20434;-82
2023/05/10 09:27:48;;;;;;;10.55;7.15;;;15.50;99.90;;;;;;5014538;28;20021;-83
2023/05/10 09:30:23;;;;;;;12.13;8.32;;;15.60;99.90;;;;;;5012466;28;20049;-81
2023/05/10 09:32:50;;;;;;;10.07;6.88;;;15.60;99.90;;;;;;5012285;28;20057;-82
2023/05/10 09:35:17;;;;;;;10.77;7.05;;;15.70;99.90;;;;;;5011653;28;20029;-82
2023/05/10 09:37:47;;;;;;;12.85;8.63;;;15.70;99.90;;;;;;5013338;28;20033;-83
2023/05/10 09:40:27;;;;;;;10.00;7.30;;;15.70;99.90;;;;;;5012573;28;20018;-83
2023/05/10 09:43:05;;;;;;;8.32;6.32;;;15.80;99.90;;;;;;5014801;28;20030;-80
2023/05/10 09:45:33;;;;;;;10.68;7.35;;;16.00;99.90;;;;;;5015039;28;20455;-81
2023/05/10 09:48:00;;;;;;;10.45;7.40;;;15.90;99.90;;;;;;5016070;28;20033;-81
2023/05/10 09:50:26;;;;;;;9.45;6.38;;;15.90;99.90;;;;;;5015050;28;20595;-79
2023/05/10 09:52:54;;;;;;;10.13;6.63;;;15.80;99.90;;;;;;5015781;28;20061;-81
2023/05/10 09:55:22;;;;;;;10.55;7.05;;;15.70;99.90;;;;;;5016378;28;20041;-81
2023/05/10 09:57:49;;;;;;;9.27;6.32;;;15.70;99.90;;;;;;5018045;28;20030;-81
2023/05/10 10:00:19;;;;;;;9.38;6.47;;;15.80;99.90;;;;;;5013852;28;20030;-82
2023/05/10 10:02:54;;;;;;;9.02;6.15;;;15.70;99.90;;;;;;5028902;28;20037;-80
2023/05/10 10:05:20;;;;;;;10.75;6.80;;;15.70;99.90;;;;;;5014207;28;20399;-83
2023/05/10 10:07:46;;;;;;;8.63;6.47;;;15.70;99.90;;;;;;5013199;28;20033;-81
2023/05/10 10:10:12;;;;;;;11.57;6.80;;;15.70;99.90;;;;;;5011195;28;20048;-80
2023/05/10 10:12:39;;;;;;;10.38;6.15;;;15.70;99.90;;;;;;5028869;28;20476;-81
2023/05/10 10:15:07;;;;;;;9.50;6.50;;;15.70;99.90;;;;;;5013860;28;20402;-81
2023/05/10 10:17:35;;;;;;;8.73;6.15;;;15.70;99.90;;;;;;5013566;28;20538;-81
2023/05/10 10:20:03;;;;;;;8.32;6.13;;;15.70;99.90;;;;;;5012335;28;20029;-82
2023/05/10 10:22:28;;;;;;;8.90;6.15;;;15.70;99.90;;;;;;5012439;28;20033;-81
2023/05/10 10:24:54;;;;;;;7.90;6.00;;;15.80;99.90;;;;;;5015289;28;20055;-81
2023/05/10 10:27:44;;;;;;;8.82;5.78;;;15.90;99.90;;;;;;5014309;28;20036;-83
2023/05/10 10:30:12;;;;;;;9.70;6.28;;;16.10;99.90;;;;;;5013066;28;20057;-82
2023/05/10 10:33:12;;;;;;;8.80;6.25;;;16.10;99.90;;;;;;5012425;28;20636;-83
2023/05/10 10:35:38;;;;;;;9.65;6.18;;;16.10;99.90;;;;;;4994900;28;20049;-83
2023/05/10 10:38:04;;;;;;;10.63;7.25;;;16.10;99.90;;;;;;5015631;28;20021;-83
2023/05/10 10:40:31;;;;;;;9.82;6.95;;;16.00;99.90;;;;;;5012457;28;20041;-81
2023/05/10 10:42:58;;;;;;;9.60;6.07;;;16.00;99.90;;;;;;5009338;28;20084;-83
2023/05/10 10:45:26;;;;;;;10.02;7.18;;;15.90;99.90;;;;;;5011675;28;20787;-83
2023/05/10 10:48:24;;;;;;;10.93;7.22;;;15.90;99.90;;;;;;5013672;28;20056;-83
2023/05/10 10:51:00;;;;;;;11.02;7.53;;;15.80;99.90;;;;;;4979331;28;20034;-82
2023/05/10 10:53:29;;;;;;;8.75;6.85;;;15.90;99.90;;;;;;5014284;28;20033;-81
2023/05/10 10:56:09;;;;;;;11.18;7.70;;;16.00;99.90;;;;;;5015927;28;20442;-82
2023/05/10 10:58:36;;;;;;;11.95;8.15;;;16.20;99.90;;;;;;5012946;28;20049;-81
2023/05/10 11:01:12;;;;;;;11.00;7.53;;;16.30;99.90;;;;;;5014128;28;20853;-81
2023/05/10 11:03:38;;;;;;;10.65;7.68;;;16.50;99.90;;;;;;5013291;28;20100;-82
2023/05/10 11:06:03;;;;;;;9.10;7.28;;;16.50;99.90;;;;;;5013879;28;20029;-82
2023/05/10 11:08:30;;;;;;;7.93;5.95;;;16.50;99.90;;;;;;5015577;28;20029;-82
2023/05/10 11:10:59;;;;;;;11.18;7.88;;;16.50;99.90;;;;;;5017435;28;20045;-83
2023/05/10 11:13:40;;;;;;;10.10;7.60;;;16.50;99.90;;;;;;5014227;28;20056;-82
2023/05/10 11:16:17;;;;;;;9.93;7.10;;;16.40;99.90;;;;;;5015704;28;20045;-83
2023/05/10 11:18:53;;;;;;;11.90;8.23;;;16.50;99.90;;;;;;5015490;28;20037;-83
2023/05/10 11:21:19;;;;;;;11.60;8.32;;;16.60;99.90;;;;;;5011835;28;20033;-83
2023/05/10 11:23:50;;;;;;;10.82;7.65;;;16.60;99.90;;;;;;5018635;28;20484;-83
2023/05/10 11:26:16;;;;;;;11.02;8.45;;;16.70;99.90;;;;;;5012743;28;20075;-82
2023/05/10 11:28:46;;;;;;;10.73;7.55;;;16.80;99.90;;;;;;5016168;28;20022;-82
2023/05/10 11:31:19;;;;;;;8.73;6.95;;;17.00;99.90;;;;;;5013791;28;20137;-82
2023/05/10 11:33:50;;;;;;;9.20;6.78;;;17.10;99.90;;;;;;5010985;28;20026;-83
2023/05/10 11:36:18;;;;;;;9.98;7.10;;;17.10;99.90;;;;;;5012701;28;20038;-82
2023/05/10 11:38:44;;;;;;;8.27;6.57;;;17.10;99.90;;;;;;5028814;28;20022;-82
2023/05/10 11:41:11;;;;;;;9.75;6.80;;;17.10;99.90;;;;;;5011761;28;20100;-82
2023/05/10 11:43:41;;;;;;;10.35;7.28;;;17.00;99.90;;;;;;5011087;28;20029;-82
2023/05/10 11:46:09;;;;;;;8.75;6.35;;;17.00;99.90;;;;;;5016311;28;20040;-83
2023/05/10 11:48:35;;;;;;;9.43;6.32;;;17.10;99.90;;;;;;5012382;28;20507;-82
2023/05/10 11:51:02;;;;;;;9.85;6.65;;;17.20;99.90;;;;;;5013675;28;20036;-81
2023/05/10 11:53:29;;;;;;;12.35;7.57;;;17.40;99.90;;;;;;5013270;28;20118;-82
2023/05/10 11:55:55;;;;;;;9.48;7.00;;;17.70;99.90;;;;;;5011458;28;20052;-81
2023/05/10 11:58:22;;;;;;;10.93;7.85;;;17.90;99.90;;;;;;5014226;28;20014;-82
2023/05/10 12:00:48;;;;;;;10.18;6.80;;;18.00;99.90;;;;;;5011701;28;20132;-81
2023/05/10 12:03:14;;;;;;;8.23;6.05;;;18.10;99.90;;;;;;5013938;28;20108;-82
2023/05/10 12:05:41;;;;;;;8.30;6.20;;;18.20;99.90;;;;;;5009773;28;20025;-82
2023/05/10 12:08:14;;;;;;;9.27;6.53;;;18.40;99.90;;;;;;5011739;28;20152;-83
2023/05/10 12:10:40;;;;;;;8.18;5.63;;;18.40;99.90;;;;;;5013467;28;20049;-82
2023/05/10 12:13:12;;;;;;;7.35;5.07;;;18.50;99.90;;;;;;5014985;28;20021;-82
2023/05/10 12:15:38;;;;;;;6.50;4.75;;;18.70;99.90;;;;;;5009922;28;20605;-82
2023/05/10 12:18:05;;;;;;;6.60;5.18;;;18.70;99.90;;;;;;5012625;28;20034;-83
2023/05/10 12:20:31;;;;;;;7.28;4.75;;;18.80;99.90;;;;;;5011136;28;20033;-82
2023/05/10 12:22:58;;;;;;;7.72;4.85;;;18.80;99.90;;;;;;5013756;28;20041;-83
2023/05/10 12:25:29;;;;;;;6.25;5.05;;;18.90;99.90;;;;;;5014622;28;20021;-83
2023/05/10 12:27:57;;;;;;;7.10;5.05;;;18.80;99.90;;;;;;5010927;28;20022;-82
2023/05/10 12:30:30;;;;;;;7.72;4.80;;;18.70;99.90;;;;;;5010774;28;20026;-82
2023/05/10 12:33:11;;;;;;;5.35;3.92;;;18.60;99.90;;;;;;5011584;28;20038;-83